Startpagina
METAR-TAF:

METAR-TAF

Vliegvelden :

Dakar, Senegal

Luchthaven Dakar

breedte: 14-44N, lengte: 017-30W, hoogte: 27 m

Actueel weer

Dit bericht is 28 minuten geleden gemaakt, om 11:30 UTC
Wind 12 kt uit het noordnoordoosten, variërend tussen het noorden en het oostnoordoosten
Temperatuur 29°C
Vochtigheid 43%
Druk 1013 hPa
Zicht 10 km of meer
geen wolken onder 1500 m en geen cumulonimbus

METAR: GOOY 191130Z 03012KT 010V070 CAVOK 29/15 Q1013 NOSIG

Tijdstip: 11:58 (11:58 UTC)

Verwachting

Dit bericht is 28 minuten geleden gemaakt, om 11:30 UTC
Verwachting geldig van 19 om 12 UTC tot 20 om 18 UTC
Wind 10 kt uit het noordnoordoosten
Zicht 10 km of meer
geen wolken onder 1500 m en geen cumulonimbus

TAF: GOOY 191130Z 1912/2018 03010KT CAVOK

Waarnemingen en weersverwachtingen van meer dan 4000 vliegvelden (METAR en TAF).

De beschikbare stations zijn de gele en rode punten op de kaart.

Ga met uw muis naar het station om de naam te zien.

Klik dan om waarnemingen en weersverwachtingen te zien.

kaart wijzigen: klik op de groene knoppen met een zwart kruis om in te zoomen, op de groene knop met een streepje om uit te zoomen of op de groene pijlen voor aangrenzende kaarten.


METAR-TAF: